Time;durP1;ratioP1;P1;durP2;ratioP2;P2;SDS_P1;SDS_P2;PMS_P1;PMS_P2;Temp;Humidity;BMP_temperature;BMP_pressure;BME280_temperature;BME280_humidity;BME280_pressure;Samples;Min_cycle;Max_cycle;Signal;HPM_P1;HPM_P2
2022/10/29 00:01:55;;;;;;;;;;;14.40;99.90;;;;;;5051323;28;21010;-58
2022/10/29 00:04:22;;;;;;;;;;;14.40;99.90;;;;;;5051215;28;20034;-58
2022/10/29 00:06:49;;;;;;;;;;;14.40;99.90;;;;;;5047903;28;19929;-58
2022/10/29 00:09:17;;;;;;;;;;;14.40;99.90;;;;;;5048854;28;19937;-58
2022/10/29 00:11:43;;;;;;;;;;;14.40;99.90;;;;;;5050769;28;19929;-58
2022/10/29 00:14:10;;;;;;;;;;;14.40;99.90;;;;;;5049031;28;19982;-58
2022/10/29 00:16:38;;;;;;;;;;;14.30;99.90;;;;;;5049320;28;19936;-57
2022/10/29 00:19:05;;;;;;;;;;;14.30;99.90;;;;;;5049805;28;19932;-58
2022/10/29 00:21:33;;;;;;;;;;;14.30;99.90;;;;;;5048928;28;19935;-58
2022/10/29 00:23:59;;;;;;;;;;;14.30;99.90;;;;;;5051659;28;22103;-58
2022/10/29 00:26:28;;;;;;;;;;;14.30;99.90;;;;;;5050863;28;19929;-58
2022/10/29 00:28:55;;;;;;;;;;;14.30;99.90;;;;;;5052061;28;20362;-58
2022/10/29 00:31:23;;;;;;;;;;;14.30;99.90;;;;;;5050312;28;19928;-58
2022/10/29 00:33:50;;;;;;;;;;;14.30;99.90;;;;;;5052680;28;19984;-58
2022/10/29 00:36:17;;;;;;;;;;;14.20;99.90;;;;;;5052668;28;19936;-58
2022/10/29 00:38:44;;;;;;;;;;;14.20;99.90;;;;;;5049960;28;19953;-58
2022/10/29 00:41:13;;;;;;;;;;;14.20;99.90;;;;;;5052004;28;19928;-58
2022/10/29 00:43:45;;;;;;;;;;;14.20;99.90;;;;;;5051757;28;19936;-58
2022/10/29 00:46:13;;;;;;;;;;;14.20;99.90;;;;;;5052370;28;19929;-58
2022/10/29 00:48:42;;;;;;;;;;;14.20;99.90;;;;;;5052114;28;19932;-57
2022/10/29 00:51:10;;;;;;;;;;;14.20;99.90;;;;;;5053288;28;19929;-58
2022/10/29 00:53:39;;;;;;;;;;;14.20;99.90;;;;;;5052156;28;20034;-57
2022/10/29 00:56:06;;;;;;;;;;;14.20;99.90;;;;;;5052638;28;21136;-58
2022/10/29 00:58:33;;;;;;;;;;;14.20;99.90;;;;;;5052425;28;19933;-58
2022/10/29 01:01:01;;;;;;;;;;;14.20;99.90;;;;;;5052843;28;19929;-58
2022/10/29 01:03:28;;;;;;;;;;;14.20;99.90;;;;;;5052687;28;19928;-58
2022/10/29 01:05:54;;;;;;;;;;;14.20;99.90;;;;;;5051695;28;19929;-58
2022/10/29 01:08:21;;;;;;;;;;;14.20;99.90;;;;;;5052446;28;19932;-58
2022/10/29 01:10:53;;;;;;;;;;;14.20;99.90;;;;;;5053455;28;20370;-58
2022/10/29 01:13:26;;;;;;;;;;;14.10;99.90;;;;;;5052225;28;19929;-58
2022/10/29 01:15:58;;;;;;;;;;;14.20;99.90;;;;;;5051999;28;19935;-58
2022/10/29 01:18:29;;;;;;;;;;;14.20;99.90;;;;;;5051763;28;19936;-58
2022/10/29 01:21:10;;;;;;;;;;;14.20;99.90;;;;;;5052359;28;19939;-58
2022/10/29 01:23:54;;;;;;;;;;;14.20;99.90;;;;;;5052502;28;19935;-58
2022/10/29 01:26:36;;;;;;;;;;;14.20;99.90;;;;;;5018709;28;19928;-58
2022/10/29 01:29:08;;;;;;;;;;;14.20;99.90;;;;;;5038602;28;19940;-58
2022/10/29 01:31:37;;;;;;;;;;;14.20;99.90;;;;;;5051871;28;20374;-58
2022/10/29 01:34:06;;;;;;;;;;;14.20;99.90;;;;;;5053728;28;19928;-58
2022/10/29 01:36:36;;;;;;;;;;;14.20;99.90;;;;;;5050444;28;20934;-58
2022/10/29 01:39:07;;;;;;;;;;;14.20;99.90;;;;;;5049013;28;20759;-58
2022/10/29 01:41:39;;;;;;;;;;;14.20;99.90;;;;;;5053046;28;19935;-58
2022/10/29 01:44:09;;;;;;;;;;;14.20;99.90;;;;;;5053334;28;19936;-58
2022/10/29 01:46:40;;;;;;;;;;;14.20;99.90;;;;;;5051515;28;19928;-58
2022/10/29 01:49:08;;;;;;;;;;;14.20;99.90;;;;;;5049181;28;19940;-58
2022/10/29 01:51:36;;;;;;;;;;;14.20;99.90;;;;;;5053268;28;22091;-58
2022/10/29 01:54:07;;;;;;;;;;;14.20;99.90;;;;;;5053254;28;19933;-58
2022/10/29 01:56:33;;;;;;;;;;;14.20;99.90;;;;;;5051565;28;19929;-57
2022/10/29 01:59:01;;;;;;;;;;;14.20;99.90;;;;;;5050510;28;19932;-58
2022/10/29 02:01:34;;;;;;;;;;;14.20;99.90;;;;;;5052477;28;19929;-58
2022/10/29 02:04:09;;;;;;;;;;;14.20;99.90;;;;;;5051307;28;20146;-58
2022/10/29 02:06:40;;;;;;;;;;;14.10;99.90;;;;;;5049647;28;19935;-58
2022/10/29 02:09:09;;;;;;;;;;;14.10;99.90;;;;;;5051710;28;22003;-58
2022/10/29 02:11:41;;;;;;;;;;;14.10;99.90;;;;;;5052020;28;19935;-58
2022/10/29 02:14:10;;;;;;;;;;;14.00;99.90;;;;;;5052797;28;19929;-57
2022/10/29 02:16:36;;;;;;;;;;;14.00;99.90;;;;;;5049340;28;19929;-57
2022/10/29 02:19:05;;;;;;;;;;;13.90;99.90;;;;;;5051199;28;19940;-58
2022/10/29 02:21:31;;;;;;;;;;;13.80;99.90;;;;;;5050753;28;19928;-58
2022/10/29 02:23:58;;;;;;;;;;;13.80;99.90;;;;;;5052927;28;19935;-58
2022/10/29 02:26:25;;;;;;;;;;;13.80;99.90;;;;;;5050419;28;19935;-58
2022/10/29 02:28:51;;;;;;;;;;;13.70;99.90;;;;;;5052069;28;19933;-58
2022/10/29 02:31:18;;;;;;;;;;;13.70;99.90;;;;;;5051569;28;19929;-58
2022/10/29 02:33:44;;;;;;;;;;;13.70;99.90;;;;;;5046485;28;19975;-58
2022/10/29 02:36:12;;;;;;;;;;;13.70;99.90;;;;;;5047678;28;20385;-57
2022/10/29 02:38:39;;;;;;;;;;;13.70;99.90;;;;;;5048548;28;21988;-58
2022/10/29 02:41:06;;;;;;;;;;;13.70;99.90;;;;;;5049229;28;19935;-58
2022/10/29 02:43:32;;;;;;;;;;;13.70;99.90;;;;;;5049689;28;19936;-58
2022/10/29 02:46:12;;;;;;;;;;;13.70;99.90;;;;;;5050457;28;19928;-58
2022/10/29 02:48:39;;;;;;;;;;;13.70;99.90;;;;;;5049132;28;19939;-58
2022/10/29 02:51:06;;;;;;;;;;;13.70;99.90;;;;;;5051413;28;19936;-58
2022/10/29 02:53:34;;;;;;;;;;;13.70;99.90;;;;;;5049458;28;19928;-58
2022/10/29 02:56:00;;;;;;;;;;;13.70;99.90;;;;;;5049951;28;19929;-58
2022/10/29 02:58:27;;;;;;;;;;;13.70;99.90;;;;;;5050647;28;19932;-58
2022/10/29 03:00:54;;;;;;;;;;;13.70;99.90;;;;;;5051108;28;19935;-57
2022/10/29 03:03:20;;;;;;;;;;;13.70;99.90;;;;;;5049172;28;19928;-58
2022/10/29 03:05:47;;;;;;;;;;;13.70;99.90;;;;;;5050954;28;19929;-58
2022/10/29 03:08:14;;;;;;;;;;;13.80;99.90;;;;;;5050705;28;20020;-58
2022/10/29 03:10:42;;;;;;;;;;;13.80;99.90;;;;;;5051634;28;20584;-58
2022/10/29 03:13:08;;;;;;;;;;;13.80;99.90;;;;;;5050166;28;22182;-58
2022/10/29 03:15:35;;;;;;;;;;;13.80;99.90;;;;;;5049309;28;19928;-58
2022/10/29 03:18:02;;;;;;;;;;;13.80;99.90;;;;;;5049013;28;19932;-58
2022/10/29 03:20:28;;;;;;;;;;;13.80;99.90;;;;;;5050916;28;19936;-58
2022/10/29 03:22:55;;;;;;;;;;;13.80;99.90;;;;;;5049926;28;19936;-57
2022/10/29 03:25:22;;;;;;;;;;;13.90;99.90;;;;;;5048356;28;20054;-58
2022/10/29 03:27:50;;;;;;;;;;;13.80;99.90;;;;;;5048490;28;19940;-58
2022/10/29 03:30:17;;;;;;;;;;;13.90;99.90;;;;;;5050836;28;19929;-58
2022/10/29 03:32:44;;;;;;;;;;;13.90;99.90;;;;;;5052054;28;19929;-58
2022/10/29 03:35:12;;;;;;;;;;;13.90;99.90;;;;;;5048787;28;19936;-58
2022/10/29 03:37:39;;;;;;;;;;;13.90;99.90;;;;;;5048109;28;20774;-57
2022/10/29 03:40:06;;;;;;;;;;;13.90;99.90;;;;;;5049703;28;19930;-58
2022/10/29 03:42:32;;;;;;;;;;;14.00;99.90;;;;;;5051890;28;19929;-58
2022/10/29 03:45:01;;;;;;;;;;;14.00;99.90;;;;;;5052520;28;19935;-58
2022/10/29 03:47:28;;;;;;;;;;;14.00;99.90;;;;;;5048685;28;19933;-58
2022/10/29 03:49:55;;;;;;;;;;;14.00;99.90;;;;;;5051254;28;19936;-58
2022/10/29 03:52:21;;;;;;;;;;;14.00;99.90;;;;;;5050151;28;19936;-57
2022/10/29 03:54:48;;;;;;;;;;;14.00;99.90;;;;;;5049293;28;20290;-58
2022/10/29 03:57:15;;;;;;;;;;;14.00;99.90;;;;;;5047956;28;19933;-58
2022/10/29 03:59:41;;;;;;;;;;;14.00;99.90;;;;;;5048668;28;19929;-58
2022/10/29 04:02:11;;;;;;;;;;;14.00;99.90;;;;;;5053888;28;19928;-57
2022/10/29 04:04:38;;;;;;;;;;;14.00;99.90;;;;;;5054422;28;19928;-58
2022/10/29 04:07:04;;;;;;;;;;;14.00;99.90;;;;;;5052016;28;19939;-58
2022/10/29 04:09:31;;;;;;;;;;;14.00;99.90;;;;;;5049585;28;19929;-57
2022/10/29 04:11:58;;;;;;;;;;;14.00;99.90;;;;;;5054110;28;19936;-61
2022/10/29 04:14:24;;;;;;;;;;;14.00;99.90;;;;;;5052666;28;20815;-61
2022/10/29 04:16:51;;;;;;;;;;;14.00;99.90;;;;;;5051413;28;19933;-61
2022/10/29 04:19:19;;;;;;;;;;;14.00;99.90;;;;;;5052829;28;19928;-61
2022/10/29 04:21:46;;;;;;;;;;;14.10;99.90;;;;;;5054624;28;19928;-61
2022/10/29 04:24:12;;;;;;;;;;;14.10;99.90;;;;;;5053643;28;21584;-61
2022/10/29 04:26:39;;;;;;;;;;;14.00;99.90;;;;;;5053157;28;19932;-61
2022/10/29 04:29:06;;;;;;;;;;;14.00;99.90;;;;;;5050956;28;19935;-61
2022/10/29 04:31:32;;;;;;;;;;;14.00;99.90;;;;;;5053280;28;19933;-61
2022/10/29 04:33:59;;;;;;;;;;;14.00;99.90;;;;;;5052799;28;20019;-61
2022/10/29 04:36:27;;;;;;;;;;;14.00;99.90;;;;;;5051902;28;19932;-61
2022/10/29 04:38:53;;;;;;;;;;;14.00;99.90;;;;;;5052605;28;21442;-62
2022/10/29 04:41:20;;;;;;;;;;;14.00;99.90;;;;;;5051671;28;19928;-61
2022/10/29 04:43:47;;;;;;;;;;;14.00;99.90;;;;;;5053989;28;19929;-61
2022/10/29 04:46:13;;;;;;;;;;;14.00;99.90;;;;;;5051995;28;19932;-62
2022/10/29 04:48:40;;;;;;;;;;;14.00;99.90;;;;;;5052721;28;19936;-60
2022/10/29 04:51:07;;;;;;;;;;;14.00;99.90;;;;;;5053373;28;19929;-61
2022/10/29 04:53:35;;;;;;;;;;;14.00;99.90;;;;;;5052485;28;19968;-61
2022/10/29 04:56:04;;;;;;;;;;;14.00;99.90;;;;;;5050875;28;20055;-61
2022/10/29 04:58:31;;;;;;;;;;;14.00;99.90;;;;;;5052232;28;20070;-61
2022/10/29 05:01:00;;;;;;;;;;;14.00;99.90;;;;;;5053155;28;19936;-61
2022/10/29 05:03:27;;;;;;;;;;;14.00;99.90;;;;;;5051997;28;19928;-61
2022/10/29 05:05:53;;;;;;;;;;;14.00;99.90;;;;;;5048941;28;19936;-62
2022/10/29 05:08:20;;;;;;;;;;;14.00;99.90;;;;;;5052541;28;19929;-61
2022/10/29 05:10:48;;;;;;;;;;;14.00;99.90;;;;;;5052035;28;20502;-61
2022/10/29 05:13:15;;;;;;;;;;;14.00;99.90;;;;;;5051698;28;19929;-61
2022/10/29 05:15:42;;;;;;;;;;;14.00;99.90;;;;;;5051738;28;19933;-61
2022/10/29 05:18:09;;;;;;;;;;;14.10;99.90;;;;;;5053379;28;19987;-61
2022/10/29 05:20:36;;;;;;;;;;;14.10;99.90;;;;;;5053171;28;19963;-61
2022/10/29 05:23:03;;;;;;;;;;;14.10;99.90;;;;;;5053480;28;19935;-62
2022/10/29 05:25:31;;;;;;;;;;;14.10;99.90;;;;;;5049899;28;19932;-61
2022/10/29 05:28:03;;;;;;;;;;;14.10;99.90;;;;;;5053523;28;19936;-61
2022/10/29 05:30:30;;;;;;;;;;;14.10;99.90;;;;;;5051445;28;20415;-61
2022/10/29 05:32:57;;;;;;;;;;;14.10;99.90;;;;;;5050026;28;19936;-61
2022/10/29 05:35:24;;;;;;;;;;;14.20;99.90;;;;;;5051581;28;19933;-61
2022/10/29 05:37:51;;;;;;;;;;;14.10;99.90;;;;;;5053154;28;19929;-61
2022/10/29 05:40:17;;;;;;;;;;;14.10;99.90;;;;;;5051259;28;19935;-61
2022/10/29 05:42:44;;;;;;;;;;;14.10;99.90;;;;;;5053065;28;19936;-61
2022/10/29 05:45:12;;;;;;;;;;;14.10;99.90;;;;;;5050482;28;19933;-61
2022/10/29 05:47:39;;;;;;;;;;;14.10;99.90;;;;;;5052020;28;19929;-61
2022/10/29 05:50:06;;;;;;;;;;;14.10;99.90;;;;;;5053222;28;19928;-62
2022/10/29 05:52:33;;;;;;;;;;;14.10;99.90;;;;;;5050419;28;19960;-61
2022/10/29 05:54:59;;;;;;;;;;;14.10;99.90;;;;;;5050398;28;20011;-61
2022/10/29 05:57:27;;;;;;;;;;;14.10;99.90;;;;;;5052286;28;19971;-61
2022/10/29 05:59:53;;;;;;;;;;;14.00;99.90;;;;;;5050716;28;19929;-61
2022/10/29 06:02:21;;;;;;;;;;;14.00;99.90;;;;;;5049017;28;19936;-61
2022/10/29 06:04:48;;;;;;;;;;;14.00;99.90;;;;;;5049615;28;19940;-61
2022/10/29 06:07:15;;;;;;;;;;;14.00;99.90;;;;;;5050081;28;19936;-61
2022/10/29 06:09:41;;;;;;;;;;;14.00;99.90;;;;;;5051518;28;19951;-61
2022/10/29 06:12:08;;;;;;;;;;;14.00;99.90;;;;;;5051059;28;19929;-61
2022/10/29 06:14:35;;;;;;;;;;;14.00;99.90;;;;;;5048445;28;19944;-61
2022/10/29 06:17:01;;;;;;;;;;;14.00;99.90;;;;;;5048430;28;19929;-61
2022/10/29 06:19:29;;;;;;;;;;;14.00;99.90;;;;;;5049808;28;19935;-61
2022/10/29 06:21:56;;;;;;;;;;;14.00;99.90;;;;;;5052124;28;19935;-61
2022/10/29 06:24:23;;;;;;;;;;;14.00;99.90;;;;;;5049211;28;19994;-62
2022/10/29 06:26:52;;;;;;;;;;;14.00;99.90;;;;;;5050804;28;20719;-61
2022/10/29 06:29:19;;;;;;;;;;;14.00;99.90;;;;;;5049808;28;19936;-61
2022/10/29 06:31:46;;;;;;;;;;;14.00;99.90;;;;;;5049099;28;19928;-61
2022/10/29 06:34:13;;;;;;;;;;;14.00;99.90;;;;;;5050846;28;19939;-61
2022/10/29 06:36:41;;;;;;;;;;;14.00;99.90;;;;;;5052335;28;19951;-61
2022/10/29 06:39:08;;;;;;;;;;;14.00;99.90;;;;;;5051736;28;19929;-61
2022/10/29 06:41:34;;;;;;;;;;;14.00;99.90;;;;;;5050214;28;19935;-61
2022/10/29 06:44:01;;;;;;;;;;;14.10;99.90;;;;;;5047082;28;19932;-61
2022/10/29 06:46:28;;;;;;;;;;;14.00;99.90;;;;;;5049197;28;19935;-61
2022/10/29 06:48:55;;;;;;;;;;;14.10;99.90;;;;;;5049090;28;19941;-62
2022/10/29 06:51:22;;;;;;;;;;;14.10;99.90;;;;;;5051752;28;20020;-61
2022/10/29 06:53:50;;;;;;;;;;;14.10;99.90;;;;;;5044996;28;21046;-61
2022/10/29 06:56:16;;;;;;;;;;;14.10;99.90;;;;;;5049155;28;19929;-61
2022/10/29 06:58:43;;;;;;;;;;;14.10;99.90;;;;;;5049971;28;19929;-62
2022/10/29 07:01:10;;;;;;;;;;;14.10;99.90;;;;;;5044882;28;19935;-61
2022/10/29 07:03:36;;;;;;;;;;;14.10;99.90;;;;;;5048694;28;19932;-61
2022/10/29 07:06:03;;;;;;;;;;;14.20;99.90;;;;;;5048478;28;20169;-61
2022/10/29 07:08:32;;;;;;;;;;;14.10;99.90;;;;;;5049788;28;19929;-61
2022/10/29 07:11:01;;;;;;;;;;;14.10;99.90;;;;;;5047952;28;19935;-61
2022/10/29 07:13:28;;;;;;;;;;;14.20;99.90;;;;;;5050054;28;19933;-61
2022/10/29 07:15:55;;;;;;;;;;;14.20;99.90;;;;;;5048496;28;20358;-61
2022/10/29 07:18:21;;;;;;;;;;;14.20;99.90;;;;;;5049415;28;21963;-62
2022/10/29 07:20:48;;;;;;;;;;;14.20;99.90;;;;;;5045364;28;21001;-61
2022/10/29 07:23:15;;;;;;;;;;;14.20;99.90;;;;;;5049085;28;19944;-61
2022/10/29 07:25:41;;;;;;;;;;;14.20;99.90;;;;;;5048163;28;19929;-61
2022/10/29 07:28:11;;;;;;;;;;;14.20;99.90;;;;;;5048433;28;19929;-61
2022/10/29 07:30:38;;;;;;;;;;;14.30;99.90;;;;;;5049841;28;20063;-61
2022/10/29 07:33:05;;;;;;;;;;;14.30;99.90;;;;;;5051665;28;19939;-61
2022/10/29 07:35:32;;;;;;;;;;;14.30;99.90;;;;;;5054169;28;19933;-61
2022/10/29 07:38:00;;;;;;;;;;;14.40;99.90;;;;;;5056844;28;19928;-61
2022/10/29 07:40:26;;;;;;;;;;;14.40;99.90;;;;;;5057155;28;19933;-61
2022/10/29 07:42:53;;;;;;;;;;;14.40;99.90;;;;;;5059254;28;19932;-61
2022/10/29 07:45:21;;;;;;;;;;;14.40;99.90;;;;;;5057116;28;20466;-61
2022/10/29 07:47:48;;;;;;;;;;;14.40;99.90;;;;;;5058369;28;20011;-61
2022/10/29 07:50:15;;;;;;;;;;;14.50;99.90;;;;;;5055047;28;20460;-62
2022/10/29 07:52:42;;;;;;;;;;;14.50;99.90;;;;;;5058496;28;19933;-61
2022/10/29 07:55:09;;;;;;;;;;;14.50;99.90;;;;;;5057982;28;19935;-61
2022/10/29 07:57:36;;;;;;;;;;;14.50;99.90;;;;;;5054709;28;20134;-61
2022/10/29 08:00:03;;;;;;;;;;;14.50;99.90;;;;;;5057825;28;19928;-61
2022/10/29 08:02:31;;;;;;;;;;;14.50;99.90;;;;;;5054717;28;19971;-61
2022/10/29 08:04:57;;;;;;;;;;;14.50;99.90;;;;;;5057112;28;19936;-61
2022/10/29 08:07:24;;;;;;;;;;;14.60;99.90;;;;;;5054218;28;19929;-61
2022/10/29 08:09:51;;;;;;;;;;;14.60;99.90;;;;;;5054377;28;19936;-61
2022/10/29 08:12:17;;;;;;;;;;;14.60;99.90;;;;;;5053742;28;19933;-61
2022/10/29 08:14:44;;;;;;;;;;;14.60;99.90;;;;;;5056164;28;20329;-61
2022/10/29 08:17:11;;;;;;;;;;;14.70;99.90;;;;;;5054325;28;19929;-61
2022/10/29 08:19:39;;;;;;;;;;;14.60;99.90;;;;;;5054080;28;19929;-61
2022/10/29 08:22:05;;;;;;;;;;;14.70;99.90;;;;;;5054598;28;19932;-61
2022/10/29 08:24:32;;;;;;;;;;;14.70;99.90;;;;;;5053156;28;19928;-58
2022/10/29 08:26:59;;;;;;;;;;;14.70;99.90;;;;;;5052343;28;19948;-58
2022/10/29 08:29:25;;;;;;;;;;;14.70;99.90;;;;;;5056485;28;19932;-58
2022/10/29 08:31:52;;;;;;;;;;;14.70;99.90;;;;;;5054570;28;19937;-58
2022/10/29 08:34:19;;;;;;;;;;;14.70;99.90;;;;;;5052500;28;19929;-58
2022/10/29 08:36:47;;;;;;;;;;;14.80;99.90;;;;;;5053579;28;19929;-58
2022/10/29 08:39:13;;;;;;;;;;;14.80;99.90;;;;;;5050671;28;19930;-58
2022/10/29 08:41:46;;;;;;;;;;;14.80;99.90;;;;;;5055187;28;19933;-58
2022/10/29 08:44:25;;;;;;;;;;;14.90;99.90;;;;;;5051854;28;19983;-58
2022/10/29 08:46:54;;;;;;;;;;;14.90;99.90;;;;;;5050937;28;19929;-58
2022/10/29 08:49:21;;;;;;;;;;;14.90;99.90;;;;;;5051300;28;20323;-58
2022/10/29 08:51:52;;;;;;;;;;;14.90;99.90;;;;;;5048715;28;19932;-57
2022/10/29 08:54:19;;;;;;;;;;;14.90;99.90;;;;;;5047311;28;19929;-58
2022/10/29 08:56:47;;;;;;;;;;;15.00;99.90;;;;;;5049712;28;19928;-58
2022/10/29 08:59:15;;;;;;;;;;;15.00;99.90;;;;;;5053473;28;19929;-58
2022/10/29 09:01:42;;;;;;;;;;;15.00;99.90;;;;;;5048552;28;19933;-58
2022/10/29 09:04:30;;;;;;;;;;;15.00;99.90;;;;;;5044130;28;19928;-58
2022/10/29 09:07:10;;;;;;;;;;;15.00;99.90;;;;;;5042933;28;20407;-58
2022/10/29 09:09:39;;;;;;;;;;;15.10;99.90;;;;;;5050651;28;19929;-58
2022/10/29 09:12:13;;;;;;;;;;;15.00;99.90;;;;;;5050776;28;19938;-58
2022/10/29 09:14:48;;;;;;;;;;;15.10;99.90;;;;;;5051367;28;20426;-58
2022/10/29 09:17:19;;;;;;;;;;;15.00;99.90;;;;;;5051619;28;19928;-58
2022/10/29 09:19:55;;;;;;;;;;;15.10;99.90;;;;;;5052151;28;19935;-58
2022/10/29 09:22:25;;;;;;;;;;;15.10;99.90;;;;;;5051133;28;19959;-58
2022/10/29 09:24:57;;;;;;;;;;;15.10;99.90;;;;;;5051523;28;20419;-58
2022/10/29 09:27:29;;;;;;;;;;;15.10;99.90;;;;;;5051102;28;19935;-58
2022/10/29 09:30:08;;;;;;;;;;;15.20;99.90;;;;;;5052819;28;20046;-58
2022/10/29 09:32:37;;;;;;;;;;;15.20;99.90;;;;;;5051470;28;19932;-58
2022/10/29 09:35:06;;;;;;;;;;;15.20;99.90;;;;;;5049338;28;20977;-58
2022/10/29 09:37:40;;;;;;;;;;;15.20;99.90;;;;;;5050136;28;19936;-58
2022/10/29 09:40:13;;;;;;;;;;;15.30;99.90;;;;;;5050096;28;19929;-58
2022/10/29 09:42:42;;;;;;;;;;;15.30;99.90;;;;;;5047902;28;19940;-58
2022/10/29 09:45:13;;;;;;;;;;;15.30;99.90;;;;;;5048049;28;20123;-58
2022/10/29 09:47:42;;;;;;;;;;;15.40;99.90;;;;;;5050321;28;20069;-58
2022/10/29 09:50:12;;;;;;;;;;;15.40;99.90;;;;;;5049115;28;19935;-58
2022/10/29 09:52:42;;;;;;;;;;;15.40;99.90;;;;;;5048841;28;19933;-58
2022/10/29 09:55:15;;;;;;;;;;;15.40;99.90;;;;;;5046285;28;21433;-58
2022/10/29 09:57:42;;;;;;;;;;;15.40;99.90;;;;;;5050413;28;19936;-58
2022/10/29 10:00:15;;;;;;;;;;;15.40;99.90;;;;;;5047939;28;19944;-58
2022/10/29 10:02:42;;;;;;;;;;;15.40;99.90;;;;;;5046213;28;19933;-58
2022/10/29 10:05:18;;;;;;;;;;;15.40;99.90;;;;;;5050145;28;19933;-58
2022/10/29 10:08:03;;;;;;;;;;;15.50;99.90;;;;;;5047584;28;20407;-58
2022/10/29 10:10:33;;;;;;;;;;;15.50;99.90;;;;;;5044125;28;20039;-57
2022/10/29 10:13:01;;;;;;;;;;;15.50;99.90;;;;;;5049355;28;19933;-58
2022/10/29 10:15:30;;;;;;;;;;;15.60;99.90;;;;;;5049367;28;19935;-58
2022/10/29 10:17:58;;;;;;;;;;;15.60;99.90;;;;;;5048349;28;19928;-58
2022/10/29 10:20:29;;;;;;;;;;;15.60;99.90;;;;;;5050184;28;21743;-58
2022/10/29 10:22:57;;;;;;;;;;;15.60;99.90;;;;;;5050478;28;19932;-58
2022/10/29 10:25:35;;;;;;;;;;;15.70;99.90;;;;;;5050121;28;19929;-58
2022/10/29 10:28:15;;;;;;;;;;;15.70;99.90;;;;;;5048664;28;19929;-58
2022/10/29 10:30:42;;;;;;;;;;;15.80;99.90;;;;;;5050623;28;19936;-58
2022/10/29 10:33:21;;;;;;;;;;;15.80;99.90;;;;;;5050291;28;19933;-58
2022/10/29 10:35:48;;;;;;;;;;;15.90;99.90;;;;;;5051052;28;20780;-58
2022/10/29 10:38:16;;;;;;;;;;;15.90;99.90;;;;;;5048577;28;20413;-58
2022/10/29 10:40:43;;;;;;;;;;;16.00;99.90;;;;;;5048608;28;19933;-58
2022/10/29 10:43:17;;;;;;;;;;;16.00;99.90;;;;;;5050782;28;20398;-58
2022/10/29 10:45:45;;;;;;;;;;;16.00;99.90;;;;;;5051013;28;20122;-58
2022/10/29 10:48:16;;;;;;;;;;;16.00;99.90;;;;;;5050510;28;19928;-58
2022/10/29 10:50:43;;;;;;;;;;;16.00;99.90;;;;;;5050668;28;19933;-58
2022/10/29 10:53:17;;;;;;;;;;;16.00;99.90;;;;;;5050857;28;19932;-58
2022/10/29 10:55:47;;;;;;;;;;;16.10;99.90;;;;;;5049520;28;19958;-58
2022/10/29 10:58:16;;;;;;;;;;;16.10;99.90;;;;;;5049925;28;19929;-58
2022/10/29 11:00:44;;;;;;;;;;;16.20;99.90;;;;;;5051192;28;19933;-58
2022/10/29 11:03:14;;;;;;;;;;;16.20;99.90;;;;;;5051250;28;20268;-58
2022/10/29 11:05:43;;;;;;;;;;;16.20;99.90;;;;;;5051207;28;21725;-58
2022/10/29 11:08:13;;;;;;;;;;;16.30;99.90;;;;;;5050739;28;19935;-58
2022/10/29 11:10:43;;;;;;;;;;;16.30;99.90;;;;;;5049692;28;20643;-59
2022/10/29 11:13:13;;;;;;;;;;;16.40;99.90;;;;;;5051450;28;19933;-58
2022/10/29 11:15:45;;;;;;;;;;;16.40;99.90;;;;;;5050809;28;19929;-58
2022/10/29 11:18:14;;;;;;;;;;;16.40;99.90;;;;;;5051028;28;19936;-58
2022/10/29 11:20:44;;;;;;;;;;;16.50;99.90;;;;;;5051595;28;20382;-58
2022/10/29 11:23:20;;;;;;;;;;;16.50;99.90;;;;;;5052313;28;20090;-58
2022/10/29 11:25:50;;;;;;;;;;;16.50;99.90;;;;;;5050757;28;20437;-58
2022/10/29 11:28:21;;;;;;;;;;;16.60;99.90;;;;;;5051196;28;19954;-58
2022/10/29 11:30:50;;;;;;;;;;;16.60;99.90;;;;;;5051028;28;20078;-58
2022/10/29 11:33:18;;;;;;;;;;;16.60;99.90;;;;;;5050533;28;19932;-58
2022/10/29 11:35:48;;;;;;;;;;;16.60;99.90;;;;;;5048758;28;19929;-58
2022/10/29 11:38:16;;;;;;;;;;;16.70;99.90;;;;;;5048927;28;20771;-58
2022/10/29 11:40:45;;;;;;;;;;;16.70;99.90;;;;;;5047453;28;20375;-58
2022/10/29 11:43:14;;;;;;;;;;;16.70;99.90;;;;;;5047453;28;19933;-58
2022/10/29 11:45:45;;;;;;;;;;;16.80;99.90;;;;;;5049099;28;19960;-58
2022/10/29 11:48:17;;;;;;;;;;;16.90;99.90;;;;;;5050598;28;20380;-58
2022/10/29 11:50:47;;;;;;;;;;;16.90;99.90;;;;;;5049972;28;19928;-58
2022/10/29 11:53:20;;;;;;;;;;;16.90;99.90;;;;;;5048351;28;19933;-58
2022/10/29 11:55:52;;;;;;;;;;;17.00;99.90;;;;;;5050021;28;19929;-58
2022/10/29 11:58:24;;;;;;;;;;;17.00;99.90;;;;;;5049455;28;19928;-58
2022/10/29 12:00:55;;;;;;;;;;;17.10;99.90;;;;;;5050501;28;21632;-58
2022/10/29 12:03:28;;;;;;;;;;;17.10;99.90;;;;;;5051137;28;19933;-58
2022/10/29 12:05:58;;;;;;;;;;;17.20;99.90;;;;;;5050605;28;19939;-58
2022/10/29 12:08:29;;;;;;;;;;;17.20;99.90;;;;;;5049085;28;19929;-58
2022/10/29 12:11:01;;;;;;;;;;;17.20;99.90;;;;;;5049815;28;20669;-58
2022/10/29 12:13:37;;;;;;;;;;;17.20;99.90;;;;;;5050564;28;19933;-58
2022/10/29 12:16:10;;;;;;;;;;;17.20;99.90;;;;;;5050410;28;20140;-58
2022/10/29 12:18:40;;;;;;;;;;;17.20;99.90;;;;;;5049001;28;19929;-58
2022/10/29 12:21:09;;;;;;;;;;;17.20;99.90;;;;;;5050729;28;20042;-58
2022/10/29 12:23:41;;;;;;;;;;;17.20;99.90;;;;;;5053961;28;19939;-58
2022/10/29 12:26:12;;;;;;;;;;;17.30;99.90;;;;;;5052150;28;19928;-58
2022/10/29 12:28:47;;;;;;;;;;;17.30;99.90;;;;;;5048278;28;19935;-58
2022/10/29 12:31:20;;;;;;;;;;;17.30;99.90;;;;;;5051863;28;19928;-58
2022/10/29 12:33:49;;;;;;;;;;;17.30;99.90;;;;;;5050017;28;20034;-58
2022/10/29 12:36:20;;;;;;;;;;;17.40;99.90;;;;;;5051939;28;19929;-58
2022/10/29 12:38:50;;;;;;;;;;;17.50;99.90;;;;;;5052616;28;20410;-58
2022/10/29 12:41:19;;;;;;;;;;;17.40;99.90;;;;;;5052650;28;20514;-58
2022/10/29 12:43:47;;;;;;;;;;;17.50;99.90;;;;;;5052906;28;20395;-58
2022/10/29 12:46:19;;;;;;;;;;;17.50;99.90;;;;;;5052229;28;19928;-58
2022/10/29 12:48:54;;;;;;;;;;;17.60;99.90;;;;;;5051815;28;19929;-58
2022/10/29 12:51:25;;;;;;;;;;;17.60;99.90;;;;;;5052995;28;19932;-58
2022/10/29 12:54:02;;;;;;;;;;;17.70;99.90;;;;;;5051964;28;19932;-58
2022/10/29 12:56:30;;;;;;;;;;;17.70;99.90;;;;;;5052789;28;19928;-58
2022/10/29 12:59:18;;;;;;;;;;;17.80;99.90;;;;;;5052630;28;20016;-58
2022/10/29 13:01:47;;;;;;;;;;;17.80;99.90;;;;;;5052168;28;19929;-58
2022/10/29 13:04:24;;;;;;;;;;;17.80;99.90;;;;;;5053239;28;20030;-58
2022/10/29 13:06:58;;;;;;;;;;;17.70;99.90;;;;;;5052300;28;19935;-58
2022/10/29 13:09:26;;;;;;;;;;;17.70;99.90;;;;;;5051415;28;20008;-58
2022/10/29 13:11:53;;;;;;;;;;;17.70;99.90;;;;;;5052695;28;19933;-58
2022/10/29 13:14:23;;;;;;;;;;;17.70;99.90;;;;;;5050118;28;19932;-58
2022/10/29 13:16:51;;;;;;;;;;;17.70;99.90;;;;;;5050861;28;19928;-58
2022/10/29 13:19:21;;;;;;;;;;;17.70;99.90;;;;;;5051786;28;19936;-58
2022/10/29 13:21:55;;;;;;;;;;;17.80;99.90;;;;;;5051803;28;19929;-58
2022/10/29 13:24:22;;;;;;;;;;;17.80;99.90;;;;;;5051337;28;20002;-58
2022/10/29 13:26:56;;;;;;;;;;;17.80;99.90;;;;;;5049838;28;19928;-58
2022/10/29 13:29:41;;;;;;;;;;;17.80;99.90;;;;;;5051023;28;19932;-58
2022/10/29 13:32:28;;;;;;;;;;;17.90;99.90;;;;;;5050934;28;20130;-58
2022/10/29 13:34:56;;;;;;;;;;;17.90;99.90;;;;;;5048720;28;19933;-58
2022/10/29 13:37:47;;;;;;;;;;;18.00;99.90;;;;;;5050748;28;19929;-58
2022/10/29 13:40:32;;;;;;;;;;;18.00;99.90;;;;;;5051275;28;19929;-58
2022/10/29 13:43:01;;;;;;;;;;;18.00;99.90;;;;;;5051065;28;19937;-63
2022/10/29 13:45:27;;;;;;;;;;;18.00;99.90;;;;;;5050959;28;19933;-62
2022/10/29 13:47:58;;;;;;;;;;;18.10;99.90;;;;;;5052790;28;19928;-63
2022/10/29 13:50:25;;;;;;;;;;;18.10;99.90;;;;;;5052165;28;20422;-63
2022/10/29 13:52:53;;;;;;;;;;;18.10;99.90;;;;;;5050821;28;19929;-62
2022/10/29 13:55:20;;;;;;;;;;;18.10;99.90;;;;;;5050861;28;19943;-62
2022/10/29 13:57:51;;;;;;;;;;;18.10;99.90;;;;;;5048324;28;20576;-63
2022/10/29 14:00:19;;;;;;;;;;;18.10;99.90;;;;;;5050177;28;21697;-63
2022/10/29 14:02:50;;;;;;;;;;;18.20;99.90;;;;;;5050678;28;19929;-63
2022/10/29 14:05:20;;;;;;;;;;;18.20;99.90;;;;;;5050674;28;19939;-63
2022/10/29 14:07:50;;;;;;;;;;;18.20;99.90;;;;;;5047980;28;21479;-63
2022/10/29 14:10:18;;;;;;;;;;;18.30;99.90;;;;;;5048660;28;19940;-63
2022/10/29 14:12:46;;;;;;;;;;;18.30;99.90;;;;;;5047956;28;19929;-63
2022/10/29 14:15:13;;;;;;;;;;;18.30;99.90;;;;;;5048670;28;20150;-64
2022/10/29 14:17:40;;;;;;;;;;;18.30;99.90;;;;;;5051150;28;20199;-63
2022/10/29 14:20:20;;;;;;;;;;;18.30;99.90;;;;;;5050261;28;19929;-63
2022/10/29 14:22:47;;;;;;;;;;;18.20;99.90;;;;;;5049602;28;19935;-63
2022/10/29 14:25:30;;;;;;;;;;;18.20;99.90;;;;;;5047583;28;19932;-63
2022/10/29 14:28:17;;;;;;;;;;;18.20;99.90;;;;;;5043827;28;20464;-62